Welcome to the Virtual
Houston Air Route Traffic Control Center

Login

 
 

Forgot your password?

Controllers Online
Callsign Controller
Loading...
Updated --
Airport Information
ICAO Rules Wind Baro
Loading...
Updated --
Full Weather Information
Top Controllers - Dec '17
Controller Online
En-Route / Oceanic
1 Jason Diket (C1) 14:19
2 Brandon Barrett (I1) 06:53
3 Ian Fisher (C1) 04:05
4 Matthew Kosmoski (I1) 03:43
5 Evan Bradley (S3) 03:38
Terminal RADAR
1 Jason Diket (C1) 03:56
2 Carson Page (S3) 03:30
3 Matthew Kosmoski (I1) 03:29
4 James Brickell (C3) 02:21
5 Evan Bradley (S3) 01:49
C/G/L Control
1 Logan Lindsey (S1) 34:42
2 Ryan Barnes (S2) 16:27
3 James Brickell (C3) 07:45
4 Brandon Wening (S2) 05:51
5 Odin Morris (S1) 05:10
Full Controller Statistics

VATSIM
VATUSA

Weather


KAUSKAUS 161153Z 00000KT 10SM OVC085 04/03 A3017 RMK AO2 SLP219 T00440033 10061 20011 56016
KBTRKBTR 161253Z 07005KT 10SM OVC080 06/01 A3028 RMK AO2 SLP253 T00560011
KCRPKCRP 161251Z 01007KT 10SM BKN039 OVC050 10/06 A3018 RMK AO2 SLP218 T01000056
KGPTKGPT 161153Z 04004KT 10SM FEW095 OVC110 06/00 A3027 RMK AO2 SLP250 T00560000 10061 20056 53005
KHOUKHOU 161153Z 00000KT 10SM BKN090 09/06 A3022 RMK AO2 SLP238 T00940056 10094 20050 55005
KIAHKIAH 161153Z 01003KT 10SM OVC085 08/06 A3022 RMK AO2 SLP233 T00830061 10083 20033 55009
KLCHKLCH 161153Z AUTO 05003KT 10SM OVC080 08/03 A3024 RMK AO2 SLP249 T00780033 10078 20050 55003
KMOBKMOB 161156Z 03005KT 10SM OVC110 04/M01 A3028 RMK AO2 SLP254 T00441011 10050 20039 53006
KMSYKMSY 161153Z 08007KT 10SM OVC090 08/02 A3027 RMK AO2 SLP252 T00780017 10083 20072 53006
KSATKSAT 161251Z 10003KT 10SM OVC065 08/04 A3016 RMK AO2 SLP204 T00780044 $